Time;durP1;ratioP1;P1;durP2;ratioP2;P2;SDS_P1;SDS_P2;PMS_P1;PMS_P2;Temp;Humidity;BMP_temperature;BMP_pressure;BME280_temperature;BME280_humidity;BME280_pressure;Samples;Min_cycle;Max_cycle;Signal;HPM_P1;HPM_P2
2023/03/24 00:00:51;;;;;;;7.03;3.42;;;;;;;;;;5014616;28;20500;-70
2023/03/24 00:03:16;;;;;;;7.65;3.50;;;;;;;;;;5014506;28;20033;-61
2023/03/24 00:05:42;;;;;;;6.68;3.72;;;;;;;;;;5014626;28;20088;-61
2023/03/24 00:08:09;;;;;;;6.20;3.40;;;;;;;;;;5014276;28;20022;-68
2023/03/24 00:10:35;;;;;;;4.32;3.20;;;;;;;;;;5011875;28;20022;-61
2023/03/24 00:13:01;;;;;;;5.18;3.47;;;;;;;;;;5014402;28;20014;-63
2023/03/24 00:15:27;;;;;;;6.88;3.90;;;;;;;;;;5014421;28;20022;-64
2023/03/24 00:17:54;;;;;;;6.15;3.20;;;;;;;;;;5014274;28;20022;-74
2023/03/24 00:20:21;;;;;;;11.10;3.78;;;;;;;;;;5014227;28;20387;-76
2023/03/24 00:22:49;;;;;;;7.75;4.13;;;;;;;;;;5014324;28;20497;-78
2023/03/24 00:25:22;;;;;;;9.45;3.42;;;;;;;;;;5011203;28;20087;-61
2023/03/24 00:27:50;;;;;;;8.13;3.40;;;;;;;;;;5014167;28;20391;-69
2023/03/24 00:30:17;;;;;;;8.23;4.68;;;;;;;;;;5011506;28;20083;-67
2023/03/24 00:32:44;;;;;;;9.55;3.88;;;;;;;;;;5014263;28;20034;-76
2023/03/24 00:35:12;;;;;;;5.88;3.65;;;;;;;;;;5014087;28;20018;-63
2023/03/24 00:37:38;;;;;;;6.90;3.85;;;;;;;;;;5014121;28;20026;-76
2023/03/24 00:40:08;;;;;;;6.38;3.53;;;;;;;;;;5013786;28;20022;-62
2023/03/24 00:42:35;;;;;;;5.13;3.20;;;;;;;;;;5014120;28;20026;-62
2023/03/24 00:45:02;;;;;;;5.22;3.45;;;;;;;;;;5013731;28;20033;-62
2023/03/24 00:47:28;;;;;;;6.28;3.50;;;;;;;;;;5013681;28;20080;-61
2023/03/24 00:49:56;;;;;;;7.03;3.53;;;;;;;;;;4995355;28;20022;-61
2023/03/24 00:52:24;;;;;;;5.47;3.30;;;;;;;;;;5013318;28;20050;-61
2023/03/24 00:54:58;;;;;;;10.18;3.80;;;;;;;;;;5013402;28;20037;-62
2023/03/24 00:57:24;;;;;;;6.50;3.47;;;;;;;;;;5011888;28;20029;-61
2023/03/24 00:59:53;;;;;;;8.07;4.45;;;;;;;;;;5013474;28;20037;-63
2023/03/24 01:02:21;;;;;;;6.80;3.65;;;;;;;;;;5013656;28;20022;-61
2023/03/24 01:04:52;;;;;;;8.88;3.80;;;;;;;;;;5013382;28;20064;-62
2023/03/24 01:07:19;;;;;;;10.38;3.85;;;;;;;;;;5011301;28;20447;-61
2023/03/24 01:09:50;;;;;;;5.53;3.70;;;;;;;;;;5013189;28;20101;-79
2023/03/24 01:12:17;;;;;;;8.85;4.43;;;;;;;;;;5011015;28;20032;-62
2023/03/24 01:14:43;;;;;;;9.73;5.00;;;;;;;;;;5013349;28;20117;-78
2023/03/24 01:17:09;;;;;;;10.23;5.40;;;;;;;;;;5013276;28;20100;-65
2023/03/24 01:19:35;;;;;;;6.18;4.63;;;;;;;;;;5012963;28;20025;-61
2023/03/24 01:22:01;;;;;;;7.90;4.25;;;;;;;;;;5013120;28;20068;-61
2023/03/24 01:24:26;;;;;;;10.43;4.10;;;;;;;;;;5012749;28;20499;-62
2023/03/24 01:26:52;;;;;;;7.43;4.38;;;;;;;;;;5012986;28;20026;-61
2023/03/24 01:29:17;;;;;;;6.93;3.35;;;;;;;;;;5013126;28;20030;-62
2023/03/24 01:34:25;;;;;;;5.70;3.88;;;;;;;;;;5193243;22;20104;-75
2023/03/24 01:36:50;;;;;;;7.03;4.53;;;;;;;;;;4992716;28;20038;-79
2023/03/24 01:39:16;;;;;;;11.15;5.00;;;;;;;;;;5012913;28;20050;-62
2023/03/24 01:41:41;;;;;;;11.05;5.25;;;;;;;;;;5012653;28;20033;-79
2023/03/24 01:44:48;;;;;;;9.30;4.90;;;;;;;;;;5012541;28;20427;-78
2023/03/24 01:47:14;;;;;;;7.30;4.97;;;;;;;;;;5007359;28;20542;-79
2023/03/24 01:49:52;;;;;;;10.68;5.10;;;;;;;;;;5012466;28;20100;-79
2023/03/24 01:52:29;;;;;;;7.97;5.70;;;;;;;;;;5010765;28;20406;-81
2023/03/24 01:55:06;;;;;;;8.02;4.60;;;;;;;;;;5011501;28;20093;-68
2023/03/24 01:57:42;;;;;;;8.60;5.03;;;;;;;;;;5011274;28;20049;-79
2023/03/24 02:00:11;;;;;;;10.60;5.32;;;;;;;;;;5010413;28;20485;-78
2023/03/24 02:02:41;;;;;;;8.88;5.25;;;;;;;;;;5012102;28;20034;-75
2023/03/24 02:05:09;;;;;;;7.13;4.20;;;;;;;;;;5010293;28;20026;-75
2023/03/24 02:07:45;;;;;;;11.63;4.90;;;;;;;;;;5012411;28;20025;-68
2023/03/24 02:10:14;;;;;;;7.65;4.57;;;;;;;;;;5000886;28;20129;-78
2023/03/24 02:12:41;;;;;;;8.60;4.90;;;;;;;;;;5008184;28;20495;-79
2023/03/24 02:15:08;;;;;;;10.07;5.47;;;;;;;;;;5002936;28;20037;-62
2023/03/24 02:17:53;;;;;;;12.05;5.78;;;;;;;;;;5000572;28;20041;-68
2023/03/24 02:20:45;;;;;;;8.10;5.40;;;;;;;;;;5002220;28;20030;-74
2023/03/24 02:23:41;;;;;;;7.97;4.35;;;;;;;;;;5000387;28;20053;-63
2023/03/24 02:26:19;;;;;;;8.88;5.35;;;;;;;;;;4997637;28;20030;-65
2023/03/24 02:28:56;;;;;;;9.95;5.85;;;;;;;;;;4982163;28;20033;-66
2023/03/24 02:31:32;;;;;;;8.88;5.45;;;;;;;;;;5003670;28;20040;-61
2023/03/24 02:34:27;;;;;;;9.52;5.20;;;;;;;;;;4996981;28;20192;-77
2023/03/24 02:36:56;;;;;;;9.90;5.10;;;;;;;;;;4997258;28;20029;-65
2023/03/24 02:39:27;;;;;;;7.40;5.07;;;;;;;;;;5003464;28;20064;-75
2023/03/24 02:41:56;;;;;;;14.88;5.32;;;;;;;;;;5003378;28;20057;-73
2023/03/24 02:44:37;;;;;;;9.32;4.15;;;;;;;;;;4997767;28;20046;-79
2023/03/24 02:47:14;;;;;;;;;;;;;;;;;;4998580;28;20026;-78
2023/03/24 02:50:06;;;;;;;8.82;5.38;;;;;;;;;;4998931;28;19933;-80
2023/03/24 02:52:47;;;;;;;8.73;5.00;;;;;;;;;;4998405;28;20145;-80
2023/03/24 02:56:00;;;;;;;9.82;5.68;;;;;;;;;;4998651;28;20037;-81
2023/03/24 02:58:46;;;;;;;8.23;5.07;;;;;;;;;;4958191;28;20469;-77
2023/03/24 03:01:39;;;;;;;8.68;4.95;;;;;;;;;;4960761;28;20126;-79
2023/03/24 03:04:16;;;;;;;13.00;5.70;;;;;;;;;;4958616;28;20038;-76
2023/03/24 03:06:46;;;;;;;7.65;5.35;;;;;;;;;;4957977;28;20042;-81
2023/03/24 03:09:16;;;;;;;6.75;4.13;;;;;;;;;;4962790;28;20030;-81
2023/03/24 03:11:48;;;;;;;9.23;4.97;;;;;;;;;;4963382;28;20041;-80
2023/03/24 03:14:21;;;;;;;7.10;5.13;;;;;;;;;;4959786;28;20034;-78
2023/03/24 03:17:01;;;;;;;7.72;4.78;;;;;;;;;;4960850;28;20158;-77
2023/03/24 03:19:41;;;;;;;7.80;5.32;;;;;;;;;;4966225;28;20037;-81
2023/03/24 03:22:13;;;;;;;8.60;4.50;;;;;;;;;;4961926;28;20093;-80
2023/03/24 03:24:42;;;;;;;8.82;4.72;;;;;;;;;;4961660;28;20058;-78
2023/03/24 03:27:17;;;;;;;6.13;4.72;;;;;;;;;;4960641;28;20173;-75
2023/03/24 03:29:49;;;;;;;8.30;4.53;;;;;;;;;;4966610;28;20671;-77
2023/03/24 03:32:26;;;;;;;6.60;4.90;;;;;;;;;;4980240;28;20041;-73
2023/03/24 03:35:08;;;;;;;11.07;4.55;;;;;;;;;;5005204;28;20084;-75
2023/03/24 03:38:31;;;;;;;8.77;5.10;;;;;;;;;;5000651;28;20478;-80
2023/03/24 03:40:59;;;;;;;9.80;4.45;;;;;;;;;;4922940;29;20038;-75
2023/03/24 03:43:30;;;;;;;8.27;4.90;;;;;;;;;;4921683;29;20393;-81
2023/03/24 03:45:57;;;;;;;6.72;4.55;;;;;;;;;;4922418;29;20040;-76
2023/03/24 03:48:25;;;;;;;14.27;4.85;;;;;;;;;;4921852;29;20043;-76
2023/03/24 03:50:51;;;;;;;7.22;4.63;;;;;;;;;;4921729;29;20451;-75
2023/03/24 03:53:20;;;;;;;7.55;4.85;;;;;;;;;;4923319;29;20398;-76
2023/03/24 03:55:46;;;;;;;10.85;4.57;;;;;;;;;;4921068;29;20047;-80
2023/03/24 03:58:11;;;;;;;6.07;3.92;;;;;;;;;;4921273;29;20043;-81
2023/03/24 04:00:38;;;;;;;8.02;5.03;;;;;;;;;;4921626;29;20032;-79
2023/03/24 04:03:16;;;;;;;7.60;4.20;;;;;;;;;;4923304;29;20496;-81
2023/03/24 04:05:47;;;;;;;7.82;5.45;;;;;;;;;;4920638;29;20536;-72
2023/03/24 04:08:50;;;;;;;7.32;4.10;;;;;;;;;;4921084;29;20131;-80
2023/03/24 04:11:24;;;;;;;6.75;5.00;;;;;;;;;;4895354;28;20813;-80
2023/03/24 04:14:25;;;;;;;4.95;2.65;;;;;;;;;;4932308;28;20289;-79
2023/03/24 04:17:15;;;;;;;7.53;4.70;;;;;;;;;;4931808;28;20067;-63
2023/03/24 04:20:05;;;;;;;9.20;5.18;;;;;;;;;;4939751;28;20489;-81
2023/03/24 04:22:48;;;;;;;5.10;3.67;;;;;;;;;;4932272;28;20058;-70
2023/03/24 04:25:23;;;;;;;6.70;4.75;;;;;;;;;;4941612;28;20051;-81
2023/03/24 04:27:59;;;;;;;5.45;3.92;;;;;;;;;;4931195;28;20074;-79
2023/03/24 04:30:54;;;;;;;7.03;4.70;;;;;;;;;;4932569;28;20404;-78
2023/03/24 04:33:29;;;;;;;11.13;4.57;;;;;;;;;;4941634;28;20420;-63
2023/03/24 04:36:05;;;;;;;6.40;4.50;;;;;;;;;;4931621;28;20130;-71
2023/03/24 04:38:34;;;;;;;6.68;5.05;;;;;;;;;;4931564;28;20043;-80
2023/03/24 04:41:02;;;;;;;8.52;5.93;;;;;;;;;;4931536;28;20031;-80
2023/03/24 04:43:34;;;;;;;12.38;6.20;;;;;;;;;;4940886;28;20110;-81
2023/03/24 04:46:02;;;;;;;10.40;5.72;;;;;;;;;;4981302;28;20121;-71
2023/03/24 04:48:28;;;;;;;13.82;7.30;;;;;;;;;;4991367;28;20038;-70
2023/03/24 04:50:57;;;;;;;9.30;5.72;;;;;;;;;;4994842;28;20037;-78
2023/03/24 04:53:22;;;;;;;9.10;5.70;;;;;;;;;;4997079;28;20501;-81
2023/03/24 04:55:48;;;;;;;6.55;4.57;;;;;;;;;;4994057;28;20037;-62
2023/03/24 04:58:17;;;;;;;7.50;4.53;;;;;;;;;;4991508;28;20038;-63
2023/03/24 05:00:43;;;;;;;6.82;3.67;;;;;;;;;;4991091;28;20033;-78
2023/03/24 05:03:13;;;;;;;6.15;3.70;;;;;;;;;;4994986;28;20077;-82
2023/03/24 05:05:44;;;;;;;4.57;3.10;;;;;;;;;;4991606;28;20034;-74
2023/03/24 05:08:10;;;;;;;6.10;4.05;;;;;;;;;;5008446;28;20092;-79
2023/03/24 05:10:36;;;;;;;6.38;3.83;;;;;;;;;;4999950;28;20027;-81
2023/03/24 05:13:02;;;;;;;7.90;3.70;;;;;;;;;;5000296;28;20030;-78
2023/03/24 05:15:28;;;;;;;8.05;4.32;;;;;;;;;;5000764;28;20093;-70
2023/03/24 05:17:53;;;;;;;7.32;3.47;;;;;;;;;;4999537;28;20076;-74
2023/03/24 05:20:19;;;;;;;4.90;3.58;;;;;;;;;;5001149;28;20038;-78
2023/03/24 05:22:45;;;;;;;5.65;3.50;;;;;;;;;;4997763;28;20376;-80
2023/03/24 05:25:11;;;;;;;7.68;3.63;;;;;;;;;;4996491;28;20030;-81
2023/03/24 05:27:36;;;;;;;5.20;3.75;;;;;;;;;;4997871;28;20048;-79
2023/03/24 05:30:05;;;;;;;7.70;3.50;;;;;;;;;;4999967;28;20040;-81
2023/03/24 05:32:30;;;;;;;6.40;3.83;;;;;;;;;;4997843;28;20030;-82
2023/03/24 05:34:56;;;;;;;6.43;3.83;;;;;;;;;;4998154;28;20022;-81
2023/03/24 05:37:21;;;;;;;4.70;3.20;;;;;;;;;;4998391;28;20041;-80
2023/03/24 05:39:47;;;;;;;5.45;3.33;;;;;;;;;;5001662;28;20018;-81
2023/03/24 05:42:13;;;;;;;5.45;3.75;;;;;;;;;;4999133;28;20169;-74
2023/03/24 05:44:38;;;;;;;5.38;3.17;;;;;;;;;;4997206;28;20056;-64
2023/03/24 05:47:04;;;;;;;6.00;3.30;;;;;;;;;;4998510;28;20425;-80
2023/03/24 05:49:30;;;;;;;7.28;3.70;;;;;;;;;;5000602;28;20036;-72
2023/03/24 05:51:55;;;;;;;5.60;3.25;;;;;;;;;;4997629;28;20034;-72
2023/03/24 05:54:21;;;;;;;4.43;3.03;;;;;;;;;;4997016;28;20154;-77
2023/03/24 05:56:47;;;;;;;4.82;3.17;;;;;;;;;;4998944;28;20069;-79
2023/03/24 05:59:12;;;;;;;5.03;3.40;;;;;;;;;;5000668;28;20379;-79
2023/03/24 06:01:38;;;;;;;4.13;2.88;;;;;;;;;;4996629;28;20033;-77
2023/03/24 06:04:04;;;;;;;7.10;3.67;;;;;;;;;;4996230;28;20041;-80
2023/03/24 06:06:29;;;;;;;7.88;5.07;;;;;;;;;;4998635;28;20030;-80
2023/03/24 06:08:57;;;;;;;7.03;3.63;;;;;;;;;;4998493;28;20060;-78
2023/03/24 06:11:23;;;;;;;6.18;3.38;;;;;;;;;;4997363;28;20057;-75
2023/03/24 06:13:48;;;;;;;6.18;3.80;;;;;;;;;;4997774;28;21566;-80
2023/03/24 06:16:14;;;;;;;6.45;3.65;;;;;;;;;;4998532;28;20049;-69
2023/03/24 06:18:41;;;;;;;5.38;3.15;;;;;;;;;;4998652;28;20068;-74
2023/03/24 06:21:07;;;;;;;4.28;3.15;;;;;;;;;;4997123;28;20022;-72
2023/03/24 06:23:33;;;;;;;5.05;4.00;;;;;;;;;;4997304;28;20037;-76
2023/03/24 06:26:00;;;;;;;7.40;3.75;;;;;;;;;;4998081;28;20037;-62
2023/03/24 06:28:29;;;;;;;5.35;4.10;;;;;;;;;;4997682;28;20030;-80
2023/03/24 06:30:57;;;;;;;6.03;3.58;;;;;;;;;;4996375;28;20029;-76
2023/03/24 06:33:24;;;;;;;6.95;4.00;;;;;;;;;;4997947;28;20065;-64
2023/03/24 06:35:51;;;;;;;6.15;3.75;;;;;;;;;;4999588;28;20085;-78
2023/03/24 06:38:17;;;;;;;4.80;3.35;;;;;;;;;;4996218;28;20030;-72
2023/03/24 06:40:43;;;;;;;10.10;3.83;;;;;;;;;;4997272;28;20060;-78
2023/03/24 06:43:08;;;;;;;5.85;4.10;;;;;;;;;;4997220;28;20084;-80
2023/03/24 06:45:33;;;;;;;5.20;3.90;;;;;;;;;;4999417;28;20042;-79
2023/03/24 06:47:59;;;;;;;7.72;3.75;;;;;;;;;;4999825;28;20026;-77
2023/03/24 06:50:31;;;;;;;5.00;3.72;;;;;;;;;;5001109;28;20037;-76
2023/03/24 06:52:58;;;;;;;5.25;3.85;;;;;;;;;;5002492;28;20121;-73
2023/03/24 06:55:23;;;;;;;9.55;4.28;;;;;;;;;;5000476;28;20042;-79
2023/03/24 06:57:49;;;;;;;4.90;3.80;;;;;;;;;;4999850;28;20114;-77
2023/03/24 07:00:15;;;;;;;6.45;4.28;;;;;;;;;;5000918;28;20073;-79
2023/03/24 07:02:41;;;;;;;7.90;4.93;;;;;;;;;;5000873;28;20081;-81
2023/03/24 07:05:08;;;;;;;6.10;4.15;;;;;;;;;;5005654;28;20202;-75
2023/03/24 07:07:35;;;;;;;6.00;4.20;;;;;;;;;;5000614;28;20088;-82
2023/03/24 07:10:02;;;;;;;5.07;3.45;;;;;;;;;;4996616;28;20483;-75
2023/03/24 07:12:29;;;;;;;8.77;4.43;;;;;;;;;;4994155;28;20069;-75
2023/03/24 07:14:55;;;;;;;6.90;4.15;;;;;;;;;;4993318;28;20025;-79
2023/03/24 07:17:20;;;;;;;6.13;3.67;;;;;;;;;;4997525;28;20034;-76
2023/03/24 07:19:46;;;;;;;6.00;3.95;;;;;;;;;;4994491;28;20069;-78
2023/03/24 07:22:12;;;;;;;9.18;4.43;;;;;;;;;;4994859;28;20033;-81
2023/03/24 07:24:37;;;;;;;6.65;4.00;;;;;;;;;;4998220;28;20370;-65
2023/03/24 07:27:03;;;;;;;8.48;5.30;;;;;;;;;;4992597;28;20105;-76
2023/03/24 07:29:28;;;;;;;7.05;4.28;;;;;;;;;;4993614;28;20042;-74
2023/03/24 07:31:57;;;;;;;6.70;4.25;;;;;;;;;;4994932;28;20038;-81
2023/03/24 07:34:24;;;;;;;7.30;4.30;;;;;;;;;;5001672;28;20082;-68
2023/03/24 07:36:50;;;;;;;6.72;4.30;;;;;;;;;;4993476;28;20040;-63
2023/03/24 07:39:16;;;;;;;8.25;4.40;;;;;;;;;;4993869;28;20034;-73
2023/03/24 07:41:41;;;;;;;7.40;4.47;;;;;;;;;;4997556;28;20030;-83
2023/03/24 07:44:07;;;;;;;7.60;4.15;;;;;;;;;;4993572;28;20034;-79
2023/03/24 07:46:33;;;;;;;7.57;4.53;;;;;;;;;;4994223;28;20038;-82
2023/03/24 07:48:58;;;;;;;8.68;4.68;;;;;;;;;;4993941;28;20114;-74
2023/03/24 07:51:24;;;;;;;8.00;4.50;;;;;;;;;;4997212;28;20712;-77
2023/03/24 07:53:49;;;;;;;7.60;3.97;;;;;;;;;;4993896;28;20095;-63
2023/03/24 07:56:15;;;;;;;9.35;4.47;;;;;;;;;;4991720;28;20080;-78
2023/03/24 07:58:41;;;;;;;6.68;4.38;;;;;;;;;;4993917;28;20046;-79
2023/03/24 08:01:09;;;;;;;10.35;4.55;;;;;;;;;;4997501;28;20080;-72
2023/03/24 08:03:35;;;;;;;5.40;3.30;;;;;;;;;;4998101;28;20026;-72
2023/03/24 08:06:01;;;;;;;5.85;3.50;;;;;;;;;;4994246;28;20675;-75
2023/03/24 08:08:27;;;;;;;5.53;3.78;;;;;;;;;;4994642;28;20029;-81
2023/03/24 08:10:52;;;;;;;5.20;3.85;;;;;;;;;;5010570;28;20030;-73
2023/03/24 08:13:18;;;;;;;4.95;3.72;;;;;;;;;;5003447;28;20026;-79
2023/03/24 08:15:43;;;;;;;5.57;3.63;;;;;;;;;;5001239;28;21948;-72
2023/03/24 08:18:09;;;;;;;6.50;3.83;;;;;;;;;;4999721;28;20073;-79
2023/03/24 08:20:34;;;;;;;5.03;3.40;;;;;;;;;;5003226;28;20026;-75
2023/03/24 08:23:03;;;;;;;5.53;3.78;;;;;;;;;;4998583;28;20054;-76
2023/03/24 08:25:29;;;;;;;4.72;3.38;;;;;;;;;;4999090;28;20038;-72
2023/03/24 08:27:54;;;;;;;5.07;3.17;;;;;;;;;;5001190;28;20037;-73
2023/03/24 08:30:22;;;;;;;5.82;3.72;;;;;;;;;;5001693;28;20109;-75
2023/03/24 08:32:53;;;;;;;6.05;4.03;;;;;;;;;;4999880;28;20639;-72
2023/03/24 08:35:23;;;;;;;8.10;4.50;;;;;;;;;;4999065;28;20445;-82
2023/03/24 08:37:48;;;;;;;10.03;3.80;;;;;;;;;;4999073;28;20095;-77
2023/03/24 08:40:18;;;;;;;6.32;3.63;;;;;;;;;;5005493;28;20416;-77
2023/03/24 08:42:47;;;;;;;5.05;3.03;;;;;;;;;;4998601;28;20053;-81
2023/03/24 08:45:13;;;;;;;5.22;3.67;;;;;;;;;;4998593;28;20045;-77
2023/03/24 08:47:39;;;;;;;5.05;3.45;;;;;;;;;;4997139;28;20395;-73
2023/03/24 08:50:05;;;;;;;9.70;4.28;;;;;;;;;;5000400;28;20360;-64
2023/03/24 08:52:31;;;;;;;9.15;3.67;;;;;;;;;;4997447;28;20030;-80
2023/03/24 08:54:56;;;;;;;6.78;3.75;;;;;;;;;;4998481;28;20029;-70
2023/03/24 08:57:22;;;;;;;4.30;3.20;;;;;;;;;;4999592;28;20749;-79
2023/03/24 08:59:47;;;;;;;7.03;3.38;;;;;;;;;;5000278;28;20018;-73
2023/03/24 09:02:13;;;;;;;6.72;3.65;;;;;;;;;;4999583;28;20456;-80
2023/03/24 09:04:38;;;;;;;8.20;4.22;;;;;;;;;;4998598;28;20037;-80
2023/03/24 09:07:04;;;;;;;7.95;3.22;;;;;;;;;;4999578;28;20364;-77
2023/03/24 09:09:30;;;;;;;7.35;4.00;;;;;;;;;;5002652;28;20061;-71
2023/03/24 09:11:56;;;;;;;4.72;3.35;;;;;;;;;;5009068;28;20073;-68
2023/03/24 09:14:21;;;;;;;3.58;2.80;;;;;;;;;;5013578;28;20034;-78
2023/03/24 09:16:49;;;;;;;4.75;3.38;;;;;;;;;;5013424;28;20440;-78
2023/03/24 09:19:15;;;;;;;4.97;3.30;;;;;;;;;;5013604;28;20032;-81
2023/03/24 09:21:44;;;;;;;5.20;3.50;;;;;;;;;;5013142;28;20495;-81
2023/03/24 09:24:10;;;;;;;5.50;3.83;;;;;;;;;;5013477;28;20417;-82
2023/03/24 09:26:36;;;;;;;6.25;3.70;;;;;;;;;;5013260;28;20113;-68
2023/03/24 09:29:02;;;;;;;6.63;4.18;;;;;;;;;;5013212;28;20022;-78
2023/03/24 09:31:27;;;;;;;6.13;4.07;;;;;;;;;;5013275;28;20073;-81
2023/03/24 09:33:53;;;;;;;5.32;4.25;;;;;;;;;;5024997;28;20076;-80
2023/03/24 09:36:18;;;;;;;7.63;4.20;;;;;;;;;;5032311;28;20025;-75
2023/03/24 09:38:43;;;;;;;6.18;4.30;;;;;;;;;;5032967;28;20025;-72
2023/03/24 09:41:21;;;;;;;9.60;4.20;;;;;;;;;;5032840;28;20025;-79
2023/03/24 09:44:01;;;;;;;8.75;4.28;;;;;;;;;;5032476;28;20108;-65
2023/03/24 09:46:49;;;;;;;14.52;4.80;;;;;;;;;;5016006;28;20087;-78
2023/03/24 09:49:24;;;;;;;6.38;4.53;;;;;;;;;;5013045;28;20030;-82
2023/03/24 09:51:57;;;;;;;6.05;4.30;;;;;;;;;;5012803;28;20065;-81
2023/03/24 09:54:31;;;;;;;6.97;3.90;;;;;;;;;;5013130;28;20057;-80
2023/03/24 09:56:58;;;;;;;5.00;3.90;;;;;;;;;;5013044;28;20029;-81
2023/03/24 09:59:37;;;;;;;5.68;4.07;;;;;;;;;;5012882;28;20026;-81
2023/03/24 10:02:11;;;;;;;7.82;3.88;;;;;;;;;;5012370;28;20025;-81
2023/03/24 10:04:36;;;;;;;5.65;3.58;;;;;;;;;;5012510;28;20148;-81
2023/03/24 10:07:45;;;;;;;5.57;3.60;;;;;;;;;;5012707;28;20110;-82
2023/03/24 10:10:54;;;;;;;6.25;4.20;;;;;;;;;;5012885;28;20046;-81
2023/03/24 10:13:31;;;;;;;5.70;3.85;;;;;;;;;;5027632;28;20095;-81
2023/03/24 10:16:33;;;;;;;5.75;3.72;;;;;;;;;;5032064;28;20025;-80
2023/03/24 10:19:16;;;;;;;5.13;4.03;;;;;;;;;;5032469;28;20034;-82
2023/03/24 10:22:06;;;;;;;5.07;3.63;;;;;;;;;;5032041;28;20091;-67
2023/03/24 10:24:37;;;;;;;5.88;3.50;;;;;;;;;;4971052;28;20038;-81
2023/03/24 10:27:30;;;;;;;5.80;3.30;;;;;;;;;;4971276;28;20043;-78
2023/03/24 10:30:05;;;;;;;5.43;3.67;;;;;;;;;;4970989;28;20479;-78
2023/03/24 10:32:33;;;;;;;8.63;3.70;;;;;;;;;;4953896;28;20080;-78
2023/03/24 10:35:07;;;;;;;6.43;3.47;;;;;;;;;;4933682;29;20116;-81
2023/03/24 10:37:33;;;;;;;4.88;3.65;;;;;;;;;;4932842;29;20086;-81
2023/03/24 10:39:59;;;;;;;4.97;3.38;;;;;;;;;;4932644;29;20035;-76
2023/03/24 10:42:30;;;;;;;5.75;3.80;;;;;;;;;;4934088;29;20418;-72
2023/03/24 10:44:56;;;;;;;9.50;5.72;;;;;;;;;;4961461;28;20035;-80
2023/03/24 10:47:25;;;;;;;4.85;3.38;;;;;;;;;;4952446;28;20082;-82
2023/03/24 10:50:01;;;;;;;7.83;3.30;;;;;;;;;;4951809;29;20167;-80
2023/03/24 10:52:27;;;;;;;5.05;3.20;;;;;;;;;;4951744;29;20031;-81
2023/03/24 10:55:02;;;;;;;5.25;3.10;;;;;;;;;;4951820;29;20630;-78
2023/03/24 10:57:28;;;;;;;5.22;3.25;;;;;;;;;;4951858;29;20032;-81
2023/03/24 11:00:00;;;;;;;6.25;3.78;;;;;;;;;;4951469;28;20039;-81
2023/03/24 11:02:30;;;;;;;6.35;3.15;;;;;;;;;;5001970;28;20042;-71
2023/03/24 11:05:04;;;;;;;4.93;3.40;;;;;;;;;;5011886;28;20102;-61
2023/03/24 11:07:39;;;;;;;6.65;3.70;;;;;;;;;;5012061;28;20029;-82
2023/03/24 11:10:14;;;;;;;6.30;3.13;;;;;;;;;;5012171;28;20029;-62
2023/03/24 11:13:01;;;;;;;4.43;3.05;;;;;;;;;;5011757;28;20518;-63
2023/03/24 11:15:32;;;;;;;4.53;2.60;;;;;;;;;;5011938;28;20030;-71
2023/03/24 11:18:00;;;;;;;3.78;2.90;;;;;;;;;;5011732;28;20048;-78
2023/03/24 11:20:32;;;;;;;4.05;2.80;;;;;;;;;;5012059;28;20037;-82
2023/03/24 11:23:12;;;;;;;4.22;3.00;;;;;;;;;;5011983;28;20375;-72
2023/03/24 11:25:39;;;;;;;5.30;3.05;;;;;;;;;;5011826;28;20074;-63
2023/03/24 11:28:08;;;;;;;5.32;2.60;;;;;;;;;;5011681;28;20391;-71
2023/03/24 11:30:44;;;;;;;3.33;2.60;;;;;;;;;;5011935;28;20049;-63
2023/03/24 11:33:24;;;;;;;5.00;2.80;;;;;;;;;;5018166;28;20037;-63
2023/03/24 11:35:50;;;;;;;3.93;2.50;;;;;;;;;;5035196;28;20450;-77
2023/03/24 11:38:18;;;;;;;3.42;2.50;;;;;;;;;;5035402;28;20384;-66
2023/03/24 11:41:06;;;;;;;3.65;2.47;;;;;;;;;;5035330;28;20052;-83
2023/03/24 11:43:31;;;;;;;5.10;2.08;;;;;;;;;;5034865;28;20088;-64
2023/03/24 11:46:22;;;;;;;5.80;2.83;;;;;;;;;;5017364;28;20059;-79
2023/03/24 11:48:56;;;;;;;3.15;2.30;;;;;;;;;;5023139;28;20533;-73
2023/03/24 11:51:31;;;;;;;5.28;2.33;;;;;;;;;;5034758;28;20037;-81
2023/03/24 11:53:59;;;;;;;3.67;2.47;;;;;;;;;;5035010;28;20032;-68
2023/03/24 11:56:39;;;;;;;5.20;2.17;;;;;;;;;;5034686;28;20037;-76
2023/03/24 11:59:30;;;;;;;3.20;2.03;;;;;;;;;;5034947;28;20048;-73
2023/03/24 12:02:18;;;;;;;2.70;1.90;;;;;;;;;;5034608;28;20027;-73
2023/03/24 12:05:03;;;;;;;3.03;1.80;;;;;;;;;;5030667;28;20081;-77
2023/03/24 12:07:50;;;;;;;2.28;1.58;;;;;;;;;;5014812;28;20053;-68
2023/03/24 12:10:38;;;;;;;2.30;1.38;;;;;;;;;;5015071;28;20102;-80
2023/03/24 12:13:30;;;;;;;1.90;1.42;;;;;;;;;;5015054;28;20088;-84
2023/03/24 12:16:18;;;;;;;2.42;1.55;;;;;;;;;;5014969;28;20072;-78
2023/03/24 12:19:08;;;;;;;3.33;1.60;;;;;;;;;;5014865;28;20116;-62
2023/03/24 12:21:39;;;;;;;2.50;1.38;;;;;;;;;;5014826;28;20034;-62
2023/03/24 12:24:17;;;;;;;2.42;1.38;;;;;;;;;;5014568;28;20038;-73
2023/03/24 12:26:42;;;;;;;3.50;2.00;;;;;;;;;;5014135;28;20143;-65
2023/03/24 12:29:36;;;;;;;3.92;1.35;;;;;;;;;;5015723;28;20100;-65
2023/03/24 12:32:07;;;;;;;3.63;1.65;;;;;;;;;;5013874;28;20025;-74
2023/03/24 12:34:44;;;;;;;5.30;1.77;;;;;;;;;;5014716;28;20572;-71
2023/03/24 12:37:24;;;;;;;2.72;1.40;;;;;;;;;;5014770;28;20032;-82
2023/03/24 12:40:11;;;;;;;1.77;1.13;;;;;;;;;;5014537;28;20379;-84
2023/03/24 12:42:43;;;;;;;2.42;1.40;;;;;;;;;;5014883;28;20029;-81
2023/03/24 12:45:39;;;;;;;2.70;1.48;;;;;;;;;;5015261;28;20034;-85
2023/03/24 12:48:17;;;;;;;2.15;1.20;;;;;;;;;;4997083;28;20474;-78
2023/03/24 12:50:48;;;;;;;3.83;1.60;;;;;;;;;;5014597;28;20057;-84
2023/03/24 12:53:40;;;;;;;2.65;1.48;;;;;;;;;;4996966;28;20494;-84
2023/03/24 12:56:14;;;;;;;2.03;1.42;;;;;;;;;;5014575;28;20347;-84
2023/03/24 12:58:50;;;;;;;2.88;1.73;;;;;;;;;;5014199;28;20419;-84
2023/03/24 13:01:40;;;;;;;3.58;1.48;;;;;;;;;;5014042;28;20030;-85
2023/03/24 13:04:27;;;;;;;2.72;1.60;;;;;;;;;;5014144;28;20022;-83
2023/03/24 13:06:57;;;;;;;4.07;1.95;;;;;;;;;;4994497;28;20030;-77
2023/03/24 13:10:03;;;;;;;2.88;1.25;;;;;;;;;;4994245;28;20037;-77
2023/03/24 13:13:13;;;;;;;2.75;1.65;;;;;;;;;;4994251;28;20076;-81
2023/03/24 13:15:56;;;;;;;1.95;1.10;;;;;;;;;;4953565;29;20051;-68
2023/03/24 13:18:28;;;;;;;1.95;1.20;;;;;;;;;;4953739;29;20027;-68
2023/03/24 13:21:15;;;;;;;3.30;1.65;;;;;;;;;;4953607;29;20102;-62
2023/03/24 13:23:53;;;;;;;7.18;1.40;;;;;;;;;;4952499;29;20031;-63
2023/03/24 13:26:23;;;;;;;2.28;1.23;;;;;;;;;;4953169;29;20043;-65
2023/03/24 13:28:48;;;;;;;3.10;1.50;;;;;;;;;;4953194;29;20055;-66
2023/03/24 13:31:16;;;;;;;3.67;1.25;;;;;;;;;;4952978;29;20086;-62
2023/03/24 13:33:43;;;;;;;2.97;1.20;;;;;;;;;;4952155;29;20583;-67
2023/03/24 13:36:09;;;;;;;1.92;1.15;;;;;;;;;;4952932;29;20043;-62
2023/03/24 13:38:42;;;;;;;2.38;1.40;;;;;;;;;;4952590;29;20509;-77
2023/03/24 13:41:16;;;;;;;3.63;1.48;;;;;;;;;;4952932;29;20151;-62
2023/03/24 13:43:48;;;;;;;6.80;1.50;;;;;;;;;;4952712;29;20075;-64
2023/03/24 13:46:14;;;;;;;2.63;1.00;;;;;;;;;;4952903;29;20063;-81
2023/03/24 13:48:45;;;;;;;5.65;1.15;;;;;;;;;;4952494;29;20055;-79
2023/03/24 13:51:28;;;;;;;2.38;1.25;;;;;;;;;;4972186;28;20454;-77
2023/03/24 13:53:58;;;;;;;2.03;1.15;;;;;;;;;;4993148;28;20044;-74
2023/03/24 13:56:34;;;;;;;3.83;1.27;;;;;;;;;;4992963;28;20034;-81
2023/03/24 13:59:21;;;;;;;3.03;1.00;;;;;;;;;;4993419;28;20035;-79
2023/03/24 14:02:16;;;;;;;4.25;1.63;;;;;;;;;;4993179;28;20030;-62
2023/03/24 14:04:48;;;;;;;3.63;1.30;;;;;;;;;;4996835;28;20471;-72
2023/03/24 14:07:30;;;;;;;2.80;1.40;;;;;;;;;;5012411;28;20037;-62
2023/03/24 14:09:58;;;;;;;3.28;1.30;;;;;;;;;;5012891;28;20111;-79
2023/03/24 14:12:24;;;;;;;3.97;1.40;;;;;;;;;;5012643;28;20506;-77
2023/03/24 14:15:17;;;;;;;2.60;1.20;;;;;;;;;;5012719;28;20053;-61
2023/03/24 14:17:45;;;;;;;3.03;1.50;;;;;;;;;;5009629;28;20121;-63
2023/03/24 14:20:13;;;;;;;3.72;1.30;;;;;;;;;;5012662;28;20046;-71
2023/03/24 14:22:45;;;;;;;2.25;1.20;;;;;;;;;;5012396;28;20026;-76
2023/03/24 14:25:13;;;;;;;6.70;2.80;;;;;;;;;;5012284;28;20037;-76
2023/03/24 14:27:44;;;;;;;4.07;1.20;;;;;;;;;;5012517;28;20103;-64
2023/03/24 14:30:12;;;;;;;4.00;1.60;;;;;;;;;;5012555;28;20095;-78
2023/03/24 14:32:43;;;;;;;3.80;1.50;;;;;;;;;;5009937;28;20022;-68
2023/03/24 14:35:43;;;;;;;2.67;1.00;;;;;;;;;;4992207;28;20047;-68
2023/03/24 14:38:15;;;;;;;;;;;;;;;;;;4992513;28;20033;-72
2023/03/24 14:40:48;;;;;;;4.70;1.25;;;;;;;;;;4992030;28;19913;-62
2023/03/24 14:43:27;;;;;;;4.45;1.98;;;;;;;;;;4993088;28;20128;-61
2023/03/24 14:46:25;;;;;;;2.83;1.40;;;;;;;;;;5010570;28;20033;-64
2023/03/24 14:49:05;;;;;;;3.38;1.05;;;;;;;;;;5009480;28;20479;-62
2023/03/24 14:51:49;;;;;;;3.25;1.20;;;;;;;;;;4991603;28;20034;-68
2023/03/24 14:54:40;;;;;;;3.58;0.90;;;;;;;;;;4992012;28;20033;-73
2023/03/24 14:57:08;;;;;;;5.57;1.10;;;;;;;;;;5003083;28;20545;-68
2023/03/24 14:59:45;;;;;;;7.43;1.95;;;;;;;;;;5011224;28;20088;-62
2023/03/24 15:02:34;;;;;;;6.05;1.92;;;;;;;;;;5011485;28;20026;-62
2023/03/24 15:05:21;;;;;;;1.27;0.80;;;;;;;;;;5001315;28;20029;-68
2023/03/24 15:08:11;;;;;;;3.38;1.00;;;;;;;;;;5011142;28;20070;-71
2023/03/24 15:10:37;;;;;;;3.90;1.10;;;;;;;;;;5003296;28;20132;-63
2023/03/24 15:13:03;;;;;;;5.45;1.10;;;;;;;;;;5014677;28;20073;-69
2023/03/24 15:15:29;;;;;;;2.47;1.00;;;;;;;;;;5014688;28;20128;-62
2023/03/24 15:17:54;;;;;;;3.22;0.80;;;;;;;;;;5014694;28;20115;-62